createdAt,value
2023-05-19T00:00:53.647Z,2.80
2023-05-19T00:01:56.656Z,2.83
2023-05-19T00:03:00.716Z,2.67
2023-05-19T00:04:06.733Z,2.70
2023-05-19T00:05:10.664Z,2.73
2023-05-19T00:06:14.101Z,3.00
2023-05-19T00:07:20.742Z,3.00
2023-05-19T00:08:24.854Z,3.27
2023-05-19T00:09:27.497Z,2.80
2023-05-19T00:10:32.093Z,2.80
2023-05-19T00:11:36.593Z,2.80
2023-05-19T00:12:39.683Z,3.10
2023-05-19T00:13:45.420Z,2.80
2023-05-19T00:14:48.056Z,2.83
2023-05-19T00:15:51.409Z,2.63
2023-05-19T00:16:56.518Z,2.90
2023-05-19T00:17:59.105Z,2.57
2023-05-19T00:19:03.281Z,3.10
2023-05-19T00:20:07.593Z,3.13
2023-05-19T00:21:10.082Z,3.00
2023-05-19T00:22:12.377Z,2.97
2023-05-19T00:23:14.731Z,2.63
2023-05-19T00:24:17.159Z,2.63
2023-05-19T00:25:19.538Z,3.07
2023-05-19T00:26:23.412Z,3.00
2023-05-19T00:27:38.056Z,2.77
2023-05-19T00:28:42.960Z,2.80
2023-05-19T00:29:45.591Z,2.47
2023-05-19T00:30:47.950Z,2.90
2023-05-19T00:31:51.386Z,2.70
2023-05-19T00:32:54.185Z,2.57
2023-05-19T00:33:56.514Z,2.67
2023-05-19T00:34:59.833Z,2.80
2023-05-19T00:36:03.831Z,2.60
2023-05-19T00:37:06.363Z,2.67
2023-05-19T00:38:08.969Z,2.60
2023-05-19T00:39:11.336Z,2.97
2023-05-19T00:40:14.819Z,2.73
2023-05-19T00:41:17.147Z,2.50
2023-05-19T00:42:21.180Z,2.40
2023-05-19T00:43:23.506Z,2.80
2023-05-19T00:44:25.861Z,2.87
2023-05-19T00:45:28.231Z,2.80
2023-05-19T00:46:30.953Z,2.70
2023-05-19T00:47:33.552Z,2.80
2023-05-19T00:48:35.887Z,2.63
2023-05-19T00:49:38.376Z,2.77
2023-05-19T00:50:41.734Z,2.97
2023-05-19T00:51:44.117Z,2.63
2023-05-19T00:52:46.716Z,2.83
2023-05-19T00:53:52.319Z,2.80
2023-05-19T00:54:55.989Z,2.50
2023-05-19T00:56:02.238Z,3.07
2023-05-19T00:57:05.016Z,2.73
2023-05-19T00:58:11.067Z,2.70
2023-05-19T00:59:13.417Z,2.97
2023-05-19T01:00:16.658Z,2.50
2023-05-19T01:01:21.945Z,2.67
2023-05-19T01:02:25.539Z,3.10
2023-05-19T01:03:31.283Z,3.27
2023-05-19T01:04:36.282Z,3.27
2023-05-19T01:05:42.537Z,2.77
2023-05-19T01:06:45.652Z,2.80
2023-05-19T01:07:52.183Z,2.90
2023-05-19T01:08:54.772Z,2.80
2023-05-19T01:09:57.767Z,2.77
2023-05-19T01:11:01.021Z,3.00
2023-05-19T01:12:03.959Z,2.90
2023-05-19T01:13:07.798Z,2.50
2023-05-19T01:14:10.195Z,3.00
2023-05-19T01:15:14.214Z,3.00
2023-05-19T01:16:23.955Z,2.83
2023-05-19T01:18:00.394Z,2.67
2023-05-19T01:19:26.665Z,2.77
2023-05-19T01:20:53.890Z,2.87
2023-05-19T01:22:23.294Z,2.90
2023-05-19T01:23:40.226Z,3.20
2023-05-19T01:25:07.237Z,2.83
2023-05-19T01:26:27.238Z,2.87
2023-05-19T01:27:59.849Z,2.90
2023-05-19T01:29:11.595Z,2.53
2023-05-19T01:30:23.966Z,2.93
2023-05-19T01:31:27.267Z,3.03
2023-05-19T01:32:31.722Z,2.97
2023-05-19T01:33:36.092Z,2.90
2023-05-19T01:34:42.754Z,2.70
2023-05-19T01:35:46.107Z,2.97
2023-05-19T01:36:50.058Z,2.90
2023-05-19T01:37:56.904Z,3.00
2023-05-19T01:39:00.301Z,2.60
2023-05-19T01:40:02.770Z,2.50
2023-05-19T01:41:07.090Z,2.83
2023-05-19T01:42:12.123Z,2.70
2023-05-19T01:43:19.763Z,2.60
2023-05-19T01:44:23.028Z,2.90
2023-05-19T01:45:27.897Z,2.63
2023-05-19T01:46:30.737Z,2.90
2023-05-19T01:47:38.545Z,2.87
2023-05-19T01:48:43.294Z,2.60
2023-05-19T01:49:45.636Z,2.77
2023-05-19T01:50:48.104Z,2.90
2023-05-19T01:51:51.073Z,2.97
2023-05-19T01:52:54.160Z,3.30
2023-05-19T01:53:56.605Z,2.83
2023-05-19T01:54:58.950Z,3.13
2023-05-19T01:56:03.140Z,2.90
2023-05-19T01:57:24.889Z,3.03
2023-05-19T01:58:27.573Z,2.97
2023-05-19T01:59:57.301Z,2.90
2023-05-19T02:01:16.761Z,2.80
2023-05-19T02:02:43.437Z,2.63
2023-05-19T02:03:59.089Z,3.00
2023-05-19T02:05:13.812Z,2.80
2023-05-19T02:06:21.530Z,2.90
2023-05-19T02:07:37.718Z,2.80
2023-05-19T02:08:51.183Z,3.00
2023-05-19T02:10:06.191Z,2.70
2023-05-19T02:11:14.260Z,2.80
2023-05-19T02:12:26.232Z,2.90
2023-05-19T02:13:34.510Z,3.00
2023-05-19T02:14:46.719Z,2.90
2023-05-19T02:15:51.265Z,3.10
2023-05-19T02:16:58.035Z,2.90
2023-05-19T02:18:04.819Z,2.63
2023-05-19T02:19:07.397Z,2.97
2023-05-19T02:20:12.035Z,2.70
2023-05-19T02:21:14.446Z,2.83
2023-05-19T02:22:17.173Z,3.00
2023-05-19T02:23:19.876Z,2.90
2023-05-19T02:24:23.136Z,2.60
2023-05-19T02:25:26.032Z,3.07
2023-05-19T02:26:28.498Z,2.90
2023-05-19T02:27:31.178Z,2.70
2023-05-19T02:28:33.616Z,2.70
2023-05-19T02:29:36.518Z,2.90
2023-05-19T02:30:38.829Z,3.10
2023-05-19T02:31:41.192Z,2.83
2023-05-19T02:32:47.043Z,3.10
2023-05-19T02:33:49.550Z,2.87
2023-05-19T02:34:53.504Z,2.63
2023-05-19T02:35:56.462Z,3.03
2023-05-19T02:36:59.181Z,2.80
2023-05-19T02:38:01.770Z,2.57
2023-05-19T02:39:05.062Z,2.70
2023-05-19T02:40:08.232Z,2.80
2023-05-19T02:41:11.002Z,3.00
2023-05-19T02:42:14.960Z,2.83
2023-05-19T02:43:17.557Z,2.67
2023-05-19T02:44:20.745Z,2.67
2023-05-19T02:45:23.197Z,2.60
2023-05-19T02:46:25.666Z,3.00
2023-05-19T02:47:28.006Z,3.10
2023-05-19T02:48:30.384Z,2.90
2023-05-19T02:49:36.243Z,2.73
2023-05-19T02:50:38.684Z,2.80
2023-05-19T02:51:41.033Z,2.70
2023-05-19T02:52:43.738Z,2.80
2023-05-19T02:53:46.520Z,3.00
2023-05-19T02:54:48.896Z,2.90
2023-05-19T02:55:51.659Z,3.03
2023-05-19T02:56:54.106Z,3.07
2023-05-19T02:57:56.469Z,3.10
2023-05-19T02:58:58.880Z,3.03
2023-05-19T03:00:01.201Z,3.07
2023-05-19T03:01:03.668Z,3.00
2023-05-19T03:02:06.051Z,2.93
2023-05-19T03:03:10.610Z,2.93
2023-05-19T03:04:14.246Z,3.13
2023-05-19T03:05:16.597Z,2.90
2023-05-19T03:06:19.031Z,2.70
2023-05-19T03:07:25.523Z,3.10
2023-05-19T03:08:28.640Z,2.80
2023-05-19T03:09:31.571Z,3.07
2023-05-19T03:10:34.084Z,2.80
2023-05-19T03:11:36.585Z,2.63
2023-05-19T03:12:39.225Z,2.90
2023-05-19T03:13:41.845Z,2.90
2023-05-19T03:14:44.542Z,2.90
2023-05-19T03:15:47.544Z,2.73
2023-05-19T03:16:49.944Z,3.00
2023-05-19T03:17:52.598Z,2.90
2023-05-19T03:18:55.844Z,3.07
2023-05-19T03:19:58.283Z,3.20
2023-05-19T03:21:01.161Z,3.00
2023-05-19T03:22:03.876Z,3.00
2023-05-19T03:23:07.098Z,3.30
2023-05-19T03:24:09.758Z,3.20
2023-05-19T03:25:12.039Z,2.80
2023-05-19T03:26:14.498Z,2.73
2023-05-19T03:27:17.282Z,2.83
2023-05-19T03:28:19.813Z,2.50
2023-05-19T03:29:22.201Z,2.90
2023-05-19T03:30:26.340Z,3.03
2023-05-19T03:31:39.197Z,2.47
2023-05-19T03:32:41.712Z,2.47
2023-05-19T03:33:44.422Z,2.90
2023-05-19T03:34:47.351Z,2.93
2023-05-19T03:35:50.322Z,2.60
2023-05-19T03:36:52.737Z,2.80
2023-05-19T03:37:55.989Z,2.60
2023-05-19T03:38:59.499Z,2.87
2023-05-19T03:40:02.315Z,2.87
2023-05-19T03:41:05.233Z,3.13
2023-05-19T03:42:07.670Z,3.07
2023-05-19T03:43:10.983Z,2.80
2023-05-19T03:44:20.354Z,2.93
2023-05-19T03:45:22.769Z,3.07
2023-05-19T03:46:27.167Z,2.80
2023-05-19T03:47:58.494Z,3.00
2023-05-19T03:49:19.697Z,3.00
2023-05-19T03:50:40.723Z,2.97
2023-05-19T03:51:50.920Z,3.03
2023-05-19T03:53:01.190Z,3.10
2023-05-19T03:54:06.272Z,3.30
2023-05-19T03:55:09.053Z,2.87
2023-05-19T03:56:14.113Z,3.10
2023-05-19T03:57:16.558Z,2.67
2023-05-19T03:58:19.170Z,2.90
2023-05-19T03:59:21.521Z,2.80
2023-05-19T04:00:24.150Z,3.10
2023-05-19T04:01:26.601Z,2.80
2023-05-19T04:02:29.334Z,3.03
2023-05-19T04:03:31.735Z,3.10
2023-05-19T04:04:35.884Z,2.73
2023-05-19T04:05:38.301Z,2.90
2023-05-19T04:06:40.819Z,2.97
2023-05-19T04:07:45.726Z,2.97
2023-05-19T04:08:48.048Z,2.50
2023-05-19T04:09:51.134Z,2.70
2023-05-19T04:10:53.479Z,2.97
2023-05-19T04:11:57.017Z,2.60
2023-05-19T04:13:00.036Z,2.87
2023-05-19T04:14:02.515Z,2.67
2023-05-19T04:15:06.245Z,2.90
2023-05-19T04:16:08.778Z,2.70
2023-05-19T04:17:11.422Z,2.80
2023-05-19T04:18:13.924Z,2.87
2023-05-19T04:19:16.565Z,2.90
2023-05-19T04:20:20.368Z,2.80
2023-05-19T04:21:22.786Z,3.13
2023-05-19T04:22:25.192Z,3.00
2023-05-19T04:23:28.276Z,3.07
2023-05-19T04:24:30.877Z,2.73
2023-05-19T04:25:38.652Z,2.83
2023-05-19T04:26:46.098Z,2.80
2023-05-19T04:27:49.360Z,2.63
2023-05-19T04:28:52.363Z,3.00
2023-05-19T04:29:54.964Z,2.80
2023-05-19T04:30:58.913Z,2.57
2023-05-19T04:32:01.351Z,2.77
2023-05-19T04:33:05.014Z,2.90
2023-05-19T04:34:10.638Z,2.70
2023-05-19T04:35:13.942Z,2.80
2023-05-19T04:36:18.630Z,3.03
2023-05-19T04:37:21.296Z,2.60
2023-05-19T04:38:23.694Z,2.90
2023-05-19T04:39:27.137Z,3.13
2023-05-19T04:40:31.662Z,2.80
2023-05-19T04:41:34.949Z,2.77
2023-05-19T04:42:43.081Z,2.80
2023-05-19T04:43:46.079Z,2.57
2023-05-19T04:44:52.124Z,2.67
2023-05-19T04:45:55.566Z,2.90
2023-05-19T04:46:58.575Z,2.60
2023-05-19T04:48:02.239Z,2.60
2023-05-19T04:49:04.595Z,2.80
2023-05-19T04:50:07.459Z,2.63
2023-05-19T04:51:10.480Z,2.60
2023-05-19T04:52:12.852Z,2.77
2023-05-19T04:53:18.053Z,2.80
2023-05-19T04:54:20.691Z,2.50
2023-05-19T04:55:23.276Z,2.43
2023-05-19T04:56:27.638Z,2.90
2023-05-19T04:57:30.338Z,2.80
2023-05-19T04:58:33.715Z,2.77
2023-05-19T04:59:36.295Z,2.97
2023-05-19T05:00:42.537Z,3.03
2023-05-19T05:01:45.956Z,2.50
2023-05-19T05:02:50.283Z,2.90
2023-05-19T05:03:55.654Z,2.70
2023-05-19T05:04:58.440Z,2.83
2023-05-19T05:06:00.761Z,2.70
2023-05-19T05:07:03.453Z,3.00
2023-05-19T05:08:06.345Z,2.80
2023-05-19T05:09:17.296Z,3.00
2023-05-19T05:10:20.020Z,3.00
2023-05-19T05:11:22.602Z,3.20
2023-05-19T05:12:25.390Z,2.87
2023-05-19T05:13:28.092Z,2.90
2023-05-19T05:14:30.684Z,3.10
2023-05-19T05:15:33.770Z,2.80
2023-05-19T05:16:38.617Z,2.87
2023-05-19T05:17:42.300Z,2.80
2023-05-19T05:18:45.213Z,3.07
2023-05-19T05:19:48.805Z,2.87
2023-05-19T05:20:51.554Z,3.00
2023-05-19T05:21:56.306Z,2.90
2023-05-19T05:22:58.962Z,3.10
2023-05-19T05:24:02.324Z,3.10
2023-05-19T05:25:08.086Z,2.87
2023-05-19T05:26:19.084Z,3.00
2023-05-19T05:27:23.779Z,3.00
2023-05-19T05:28:26.347Z,2.63
2023-05-19T05:29:29.558Z,3.23
2023-05-19T05:30:34.646Z,3.40
2023-05-19T05:31:37.889Z,2.93
2023-05-19T05:32:40.947Z,3.13
2023-05-19T05:33:50.784Z,3.40
2023-05-19T05:34:59.348Z,2.83
2023-05-19T05:36:02.179Z,2.70
2023-05-19T05:37:04.661Z,2.70
2023-05-19T05:38:07.233Z,2.97
2023-05-19T05:39:10.342Z,2.77
2023-05-19T05:40:14.792Z,2.73
2023-05-19T05:41:17.235Z,3.13
2023-05-19T05:42:20.718Z,3.00
2023-05-19T05:43:23.663Z,2.63
2023-05-19T05:44:31.869Z,2.90
2023-05-19T05:45:34.454Z,3.03
2023-05-19T05:46:37.543Z,2.90
2023-05-19T05:47:41.685Z,2.77
2023-05-19T05:48:45.013Z,2.90
2023-05-19T05:49:48.910Z,2.70
2023-05-19T05:50:52.707Z,2.60
2023-05-19T05:52:05.837Z,2.80
2023-05-19T05:53:19.728Z,3.00
2023-05-19T05:54:25.129Z,2.87
2023-05-19T05:55:28.799Z,2.60
2023-05-19T05:56:34.005Z,3.07
2023-05-19T05:57:36.939Z,2.80
2023-05-19T05:58:40.897Z,2.90
2023-05-19T05:59:45.816Z,3.00
2023-05-19T06:00:49.543Z,2.77
2023-05-19T06:01:53.235Z,3.03
2023-05-19T06:02:57.615Z,3.10
2023-05-19T06:04:01.466Z,2.83
2023-05-19T06:05:07.008Z,2.80
2023-05-19T06:06:10.479Z,2.87
2023-05-19T06:07:12.869Z,3.30
2023-05-19T06:08:15.599Z,3.00
2023-05-19T06:09:18.501Z,3.03
2023-05-19T06:10:21.477Z,3.20
2023-05-19T06:11:25.356Z,2.80
2023-05-19T06:12:28.966Z,3.27
2023-05-19T06:13:31.357Z,3.10
2023-05-19T06:14:33.876Z,3.07
2023-05-19T06:15:53.277Z,3.30
2023-05-19T06:17:00.708Z,3.10
2023-05-19T06:18:04.230Z,3.10
2023-05-19T06:19:06.687Z,3.00
2023-05-19T06:20:11.064Z,3.13
2023-05-19T06:21:14.870Z,2.87
2023-05-19T06:22:18.007Z,2.90
2023-05-19T06:23:20.364Z,3.30
2023-05-19T06:24:22.967Z,2.80
2023-05-19T06:25:26.054Z,2.90
2023-05-19T06:26:28.750Z,2.90
2023-05-19T06:27:32.634Z,3.28
2023-05-19T06:28:37.298Z,3.38
2023-05-19T06:29:40.836Z,3.78
2023-05-19T06:30:44.514Z,3.05
2023-05-19T06:32:09.916Z,3.00
2023-05-19T06:33:12.624Z,2.90
2023-05-19T06:34:17.875Z,2.78
2023-05-19T06:35:22.374Z,3.35
2023-05-19T06:36:26.571Z,2.83
2023-05-19T06:37:31.830Z,2.88
2023-05-19T06:38:34.160Z,2.90
2023-05-19T06:39:39.137Z,2.85
2023-05-19T06:40:41.617Z,2.95
2023-05-19T06:41:44.734Z,3.30
2023-05-19T06:42:58.884Z,3.33
2023-05-19T06:44:15.026Z,3.10
2023-05-19T06:45:22.635Z,3.05
2023-05-19T06:46:28.195Z,3.15
2023-05-19T06:47:31.097Z,3.35
2023-05-19T06:48:34.305Z,3.17
2023-05-19T06:49:37.632Z,3.00
2023-05-19T06:50:39.998Z,3.03
2023-05-19T06:51:42.486Z,2.90
2023-05-19T06:52:44.892Z,3.00
2023-05-19T06:53:49.160Z,3.22
2023-05-19T06:54:51.480Z,3.38
2023-05-19T06:55:58.697Z,3.35
2023-05-19T06:57:02.757Z,3.30
2023-05-19T06:58:05.357Z,3.40
2023-05-19T06:59:07.664Z,3.33
2023-05-19T07:00:15.273Z,3.33
2023-05-19T07:01:21.952Z,3.30
2023-05-19T07:02:29.541Z,3.90
2023-05-19T07:03:32.799Z,3.35
2023-05-19T07:04:36.584Z,3.42
2023-05-19T07:05:38.984Z,3.30
2023-05-19T07:06:41.267Z,3.28
2023-05-19T07:07:44.210Z,3.47
2023-05-19T07:08:49.352Z,3.40
2023-05-19T07:09:52.877Z,3.80
2023-05-19T07:10:56.740Z,3.47
2023-05-19T07:11:59.221Z,3.30
2023-05-19T07:13:02.025Z,3.47
2023-05-19T07:14:08.056Z,3.40
2023-05-19T07:15:11.886Z,3.70
2023-05-19T07:16:14.379Z,3.80
2023-05-19T07:17:17.727Z,3.80
2023-05-19T07:18:21.603Z,3.50
2023-05-19T07:19:24.395Z,3.80
2023-05-19T07:20:28.388Z,3.40
2023-05-19T07:21:30.963Z,3.65
2023-05-19T07:22:35.479Z,3.40
2023-05-19T07:23:38.144Z,3.55
2023-05-19T07:24:41.066Z,3.45
2023-05-19T07:25:43.446Z,3.38
2023-05-19T07:26:45.792Z,3.10
2023-05-19T07:27:48.196Z,2.70
2023-05-19T07:28:52.109Z,2.63
2023-05-19T07:29:54.670Z,2.40
2023-05-19T07:30:57.103Z,2.50
2023-05-19T07:31:59.681Z,2.95
2023-05-19T07:33:02.130Z,2.78
2023-05-19T07:34:04.642Z,2.60
2023-05-19T07:35:08.938Z,2.50
2023-05-19T07:36:11.693Z,2.42
2023-05-19T07:37:16.433Z,2.50
2023-05-19T07:38:18.936Z,2.70
2023-05-19T07:39:22.597Z,2.75
2023-05-19T07:40:25.111Z,2.60
2023-05-19T07:41:27.665Z,2.40
2023-05-19T07:42:30.053Z,2.33
2023-05-19T07:43:32.453Z,2.60
2023-05-19T07:44:35.134Z,2.60
2023-05-19T07:45:38.332Z,2.50
2023-05-19T07:46:40.790Z,2.60
2023-05-19T07:47:43.259Z,2.60
2023-05-19T07:48:46.041Z,2.58
2023-05-19T07:49:50.375Z,2.70
2023-05-19T07:50:54.355Z,2.25
2023-05-19T07:51:57.363Z,2.30
2023-05-19T07:52:59.722Z,2.63
2023-05-19T07:54:04.063Z,2.50
2023-05-19T07:55:06.555Z,2.90
2023-05-19T07:56:08.979Z,2.20
2023-05-19T07:57:11.561Z,2.60
2023-05-19T07:58:14.577Z,2.67
2023-05-19T07:59:16.935Z,2.45
2023-05-19T08:00:19.459Z,2.50
2023-05-19T08:01:22.321Z,2.72
2023-05-19T08:02:25.150Z,2.53
2023-05-19T08:03:28.693Z,2.72
2023-05-19T08:04:31.961Z,2.83
2023-05-19T08:05:36.491Z,2.65
2023-05-19T08:06:39.730Z,2.42
2023-05-19T08:07:42.141Z,2.80
2023-05-19T08:08:44.599Z,3.10
2023-05-19T08:09:47.087Z,2.70
2023-05-19T08:10:49.759Z,2.78
2023-05-19T08:11:52.226Z,2.85
2023-05-19T08:12:54.727Z,2.78
2023-05-19T08:13:57.734Z,3.13
2023-05-19T08:15:01.347Z,2.58
2023-05-19T08:16:06.471Z,2.75
2023-05-19T08:17:08.913Z,2.60
2023-05-19T08:18:11.275Z,2.90
2023-05-19T08:19:13.853Z,2.80
2023-05-19T08:20:16.267Z,2.70
2023-05-19T08:21:19.744Z,2.50
2023-05-19T08:22:22.132Z,2.30
2023-05-19T08:23:24.518Z,2.20
2023-05-19T08:24:29.783Z,2.50
2023-05-19T08:25:33.070Z,2.60
2023-05-19T08:26:37.638Z,2.13
2023-05-19T08:27:41.601Z,2.53
2023-05-19T08:28:44.483Z,2.40
2023-05-19T08:29:46.816Z,2.63
2023-05-19T08:30:52.653Z,2.53
2023-05-19T08:31:55.175Z,2.38
2023-05-19T08:32:57.699Z,2.45
2023-05-19T08:34:00.196Z,3.08
2023-05-19T08:35:02.533Z,3.30
2023-05-19T08:36:05.273Z,2.50
2023-05-19T08:37:07.992Z,2.75
2023-05-19T08:38:10.370Z,2.42
2023-05-19T08:39:14.242Z,2.50
2023-05-19T08:40:18.543Z,2.75
2023-05-19T08:41:23.453Z,2.88
2023-05-19T08:42:25.780Z,2.92
2023-05-19T08:43:28.252Z,3.00
2023-05-19T08:44:31.806Z,3.10
2023-05-19T08:45:38.901Z,3.17
2023-05-19T08:46:44.943Z,2.60
2023-05-19T08:47:51.219Z,2.75
2023-05-19T08:48:58.837Z,3.17
2023-05-19T08:50:11.959Z,2.90
2023-05-19T08:51:30.483Z,3.10
2023-05-19T08:52:46.878Z,2.90
2023-05-19T08:53:57.860Z,2.80
2023-05-19T08:55:13.238Z,3.03
2023-05-19T08:56:20.254Z,2.72
2023-05-19T08:57:25.342Z,2.78
2023-05-19T08:58:28.880Z,2.95
2023-05-19T08:59:32.774Z,3.10
2023-05-19T09:00:35.797Z,3.20
2023-05-19T09:01:40.713Z,3.67
2023-05-19T09:02:55.082Z,3.10
2023-05-19T09:04:03.862Z,3.00
2023-05-19T09:05:07.482Z,3.17
2023-05-19T09:06:14.702Z,3.38
2023-05-19T09:07:17.404Z,3.28
2023-05-19T09:08:19.868Z,3.20
2023-05-19T09:09:22.461Z,3.28
2023-05-19T09:10:25.613Z,3.35
2023-05-19T09:11:28.900Z,2.90
2023-05-19T09:12:31.728Z,3.22
2023-05-19T09:13:34.427Z,3.08
2023-05-19T09:14:37.588Z,2.90
2023-05-19T09:15:41.425Z,3.08
2023-05-19T09:16:46.070Z,2.97
2023-05-19T09:17:52.129Z,2.92
2023-05-19T09:18:58.435Z,3.22
2023-05-19T09:20:07.120Z,2.60
2023-05-19T09:21:12.090Z,3.45
2023-05-19T09:22:16.292Z,3.00
2023-05-19T09:23:18.641Z,2.60
2023-05-19T09:24:25.772Z,3.10
2023-05-19T09:25:28.269Z,3.10
2023-05-19T09:26:38.553Z,3.20
2023-05-19T09:27:41.286Z,3.42
2023-05-19T09:28:43.650Z,2.95
2023-05-19T09:29:45.950Z,3.30
2023-05-19T09:30:48.623Z,3.28
2023-05-19T09:31:56.593Z,2.83
2023-05-19T09:32:59.203Z,3.20
2023-05-19T09:34:01.630Z,3.15
2023-05-19T09:35:04.609Z,3.10
2023-05-19T09:36:08.712Z,2.90
2023-05-19T09:37:13.384Z,2.72
2023-05-19T09:38:19.419Z,2.88
2023-05-19T09:39:23.707Z,3.20
2023-05-19T09:40:28.307Z,2.90
2023-05-19T09:41:31.174Z,2.90
2023-05-19T09:42:37.529Z,2.90
2023-05-19T09:43:39.904Z,3.00
2023-05-19T09:44:42.592Z,2.85
2023-05-19T09:45:45.325Z,2.60
2023-05-19T09:46:50.036Z,2.95
2023-05-19T09:47:52.421Z,2.70
2023-05-19T09:48:58.883Z,3.30
2023-05-19T09:50:02.052Z,3.22
2023-05-19T09:51:09.247Z,3.10
2023-05-19T09:52:16.433Z,2.88
2023-05-19T09:53:18.968Z,2.70
2023-05-19T09:54:23.906Z,2.90
2023-05-19T09:55:28.960Z,3.20
2023-05-19T09:56:38.266Z,3.22
2023-05-19T09:57:41.670Z,2.90
2023-05-19T09:58:44.099Z,2.72
2023-05-19T09:59:46.763Z,3.00
2023-05-19T10:00:50.673Z,2.90
2023-05-19T10:01:58.014Z,2.70
2023-05-19T10:03:02.696Z,2.75
2023-05-19T10:04:06.096Z,2.90
2023-05-19T10:05:17.822Z,2.90
2023-05-19T10:06:22.181Z,3.00
2023-05-19T10:07:24.842Z,2.95
2023-05-19T10:08:30.126Z,2.55
2023-05-19T10:09:33.730Z,2.67
2023-05-19T10:10:37.353Z,2.72
2023-05-19T10:11:40.249Z,3.20
2023-05-19T10:12:43.400Z,2.80
2023-05-19T10:13:46.381Z,2.97
2023-05-19T10:14:49.238Z,3.08
2023-05-19T10:16:59.691Z,2.97
2023-05-19T10:18:03.832Z,2.92
2023-05-19T10:19:09.279Z,3.08
2023-05-19T10:20:14.288Z,3.10
2023-05-19T10:21:17.324Z,2.92
2023-05-19T10:22:19.602Z,2.90
2023-05-19T10:23:22.716Z,3.20
2023-05-19T10:24:25.271Z,2.63
2023-05-19T10:25:27.958Z,2.85
2023-05-19T10:26:31.435Z,3.13
2023-05-19T10:27:49.083Z,2.90
2023-05-19T10:28:51.832Z,2.90
2023-05-19T10:29:57.765Z,2.97
2023-05-19T10:31:03.293Z,3.15
2023-05-19T10:32:11.881Z,3.40
2023-05-19T10:33:17.690Z,3.05
2023-05-19T10:34:22.448Z,2.90
2023-05-19T10:35:34.541Z,2.65
2023-05-19T10:36:45.192Z,2.63
2023-05-19T10:38:06.654Z,3.05
2023-05-19T10:39:18.415Z,2.90
2023-05-19T10:40:39.137Z,2.63
2023-05-19T10:42:19.686Z,2.75
2023-05-19T10:44:02.121Z,2.65
2023-05-19T10:45:21.280Z,2.85
2023-05-19T10:46:27.522Z,2.95
2023-05-19T10:47:30.731Z,3.00
2023-05-19T10:48:36.541Z,3.00
2023-05-19T10:49:40.003Z,2.80
2023-05-19T10:50:45.434Z,2.88
2023-05-19T10:51:47.701Z,2.88
2023-05-19T10:52:56.998Z,2.70
2023-05-19T10:54:03.976Z,2.45
2023-05-19T10:55:18.007Z,3.00
2023-05-19T10:56:31.300Z,3.08
2023-05-19T10:57:34.177Z,2.70
2023-05-19T10:58:49.791Z,2.53
2023-05-19T10:59:52.187Z,2.55
2023-05-19T11:01:01.252Z,2.80
2023-05-19T11:02:05.116Z,3.00
2023-05-19T11:03:24.472Z,2.97
2023-05-19T11:04:51.946Z,2.70
2023-05-19T11:06:17.777Z,2.70
2023-05-19T11:07:22.594Z,2.50
2023-05-19T11:08:33.755Z,2.95
2023-05-19T11:09:41.213Z,2.70
2023-05-19T11:10:46.665Z,2.72
2023-05-19T11:11:49.116Z,2.72
2023-05-19T11:12:52.353Z,2.60
2023-05-19T11:13:55.907Z,2.80
2023-05-19T11:14:59.529Z,2.70
2023-05-19T11:16:08.516Z,3.08
2023-05-19T11:17:15.474Z,2.72
2023-05-19T11:18:21.622Z,2.92
2023-05-19T11:19:32.309Z,2.80
2023-05-19T11:20:39.465Z,2.78
2023-05-19T11:22:00.951Z,2.78
2023-05-19T11:23:08.377Z,2.60
2023-05-19T11:24:11.173Z,3.20
2023-05-19T11:25:13.612Z,2.50
2023-05-19T11:26:15.969Z,2.67
2023-05-19T11:27:26.425Z,2.63
2023-05-19T11:28:31.117Z,3.00
2023-05-19T11:29:34.798Z,2.60
2023-05-19T11:30:37.635Z,3.30
2023-05-19T11:31:40.015Z,3.40
2023-05-19T11:32:44.781Z,2.80
2023-05-19T11:33:48.594Z,2.80
2023-05-19T11:34:54.644Z,2.70
2023-05-19T11:36:00.457Z,2.83
2023-05-19T11:37:03.084Z,2.85
2023-05-19T11:38:07.441Z,2.92
2023-05-19T11:39:10.828Z,3.00
2023-05-19T11:40:14.032Z,2.92
2023-05-19T11:41:18.202Z,3.28
2023-05-19T11:42:21.177Z,2.95
2023-05-19T11:43:24.905Z,2.80
2023-05-19T11:44:27.197Z,2.90
2023-05-19T11:45:32.213Z,3.00
2023-05-19T11:46:34.785Z,2.80
2023-05-19T11:47:50.769Z,3.25
2023-05-19T11:48:59.626Z,3.47
2023-05-19T11:50:02.233Z,3.30
2023-05-19T11:51:06.766Z,2.90
2023-05-19T11:52:09.188Z,2.53
2023-05-19T11:53:15.332Z,2.90
2023-05-19T11:54:19.520Z,2.70
2023-05-19T11:55:22.579Z,2.55
2023-05-19T11:56:24.906Z,2.53
2023-05-19T11:57:28.653Z,2.60
2023-05-19T11:58:32.361Z,2.67
2023-05-19T11:59:36.861Z,2.80
2023-05-19T12:00:41.962Z,2.70
2023-05-19T12:01:44.321Z,2.67
2023-05-19T12:02:46.951Z,2.70
2023-05-19T12:03:49.980Z,2.78
2023-05-19T12:04:52.954Z,2.65
2023-05-19T12:05:57.229Z,2.85
2023-05-19T12:06:59.780Z,2.67
2023-05-19T12:08:02.947Z,3.08
2023-05-19T12:09:05.727Z,3.20
2023-05-19T12:10:09.228Z,3.17
2023-05-19T12:11:11.689Z,2.67
2023-05-19T12:12:19.309Z,2.67
2023-05-19T12:13:22.945Z,2.70
2023-05-19T12:14:27.223Z,3.55
2023-05-19T12:15:29.588Z,3.20
2023-05-19T12:16:36.622Z,2.70
2023-05-19T12:17:39.269Z,2.70
2023-05-19T12:18:42.549Z,3.03
2023-05-19T12:19:47.269Z,2.78
2023-05-19T12:20:50.177Z,3.30
2023-05-19T12:21:53.386Z,2.80
2023-05-19T12:22:56.616Z,2.85
2023-05-19T12:24:00.203Z,2.40
2023-05-19T12:25:02.941Z,2.45
2023-05-19T12:26:05.430Z,2.70
2023-05-19T12:27:13.935Z,2.80
2023-05-19T12:28:16.777Z,2.40
2023-05-19T12:29:21.860Z,2.38
2023-05-19T12:30:29.112Z,2.60
2023-05-19T12:31:31.592Z,2.72
2023-05-19T12:32:36.312Z,2.65
2023-05-19T12:33:38.675Z,2.88
2023-05-19T12:34:41.945Z,2.50
2023-05-19T12:35:44.864Z,2.67
2023-05-19T12:36:47.192Z,2.72
2023-05-19T12:37:49.607Z,2.50
2023-05-19T12:38:58.442Z,2.80
2023-05-19T12:40:02.508Z,2.75
2023-05-19T12:41:06.564Z,2.78
2023-05-19T12:42:09.985Z,2.58
2023-05-19T12:43:23.175Z,2.70
2023-05-19T12:44:25.884Z,2.50
2023-05-19T12:45:29.049Z,2.58
2023-05-19T12:46:33.233Z,2.80
2023-05-19T12:47:36.433Z,2.70
2023-05-19T12:48:44.249Z,3.03
2023-05-19T12:49:57.357Z,3.08
2023-05-19T12:50:59.679Z,3.00
2023-05-19T12:52:11.880Z,2.80
2023-05-19T12:53:16.480Z,3.05
2023-05-19T12:54:22.382Z,3.15
2023-05-19T12:55:25.322Z,3.30
2023-05-19T12:56:27.641Z,3.15
2023-05-19T12:57:37.325Z,2.92
2023-05-19T12:58:40.119Z,3.15
2023-05-19T12:59:43.351Z,2.80
2023-05-19T13:00:50.659Z,3.20
2023-05-19T13:02:00.257Z,3.20
2023-05-19T13:03:07.881Z,3.28
2023-05-19T13:04:10.598Z,2.97
2023-05-19T13:05:13.208Z,3.25
2023-05-19T13:06:15.509Z,3.22
2023-05-19T13:07:17.984Z,2.83
2023-05-19T13:08:22.354Z,2.90
2023-05-19T13:09:24.756Z,3.08
2023-05-19T13:10:28.168Z,3.08
2023-05-19T13:11:30.548Z,3.13
2023-05-19T13:12:33.052Z,3.30
2023-05-19T13:13:35.659Z,3.17
2023-05-19T13:14:38.765Z,3.10
2023-05-19T13:15:43.487Z,3.40
2023-05-19T13:16:47.031Z,3.47
2023-05-19T13:17:49.623Z,3.70
2023-05-19T13:18:52.021Z,3.38
2023-05-19T13:19:54.789Z,3.70
2023-05-19T13:20:58.740Z,3.70
2023-05-19T13:22:03.800Z,3.78
2023-05-19T13:23:07.138Z,3.55
2023-05-19T13:24:09.696Z,3.47
2023-05-19T13:25:12.120Z,3.30
2023-05-19T13:26:15.754Z,3.47
2023-05-19T13:27:19.545Z,3.42
2023-05-19T13:28:21.893Z,3.10
2023-05-19T13:29:24.611Z,3.25
2023-05-19T13:30:28.277Z,3.00
2023-05-19T13:31:31.199Z,3.47
2023-05-19T13:32:34.256Z,3.33
2023-05-19T13:33:36.642Z,3.80
2023-05-19T13:34:40.338Z,3.95
2023-05-19T13:35:48.437Z,3.67
2023-05-19T13:36:50.988Z,4.03
2023-05-19T13:37:53.548Z,3.70
2023-05-19T13:38:55.935Z,3.60
2023-05-19T13:39:59.239Z,4.38
2023-05-19T13:41:01.621Z,4.25
2023-05-19T13:42:05.137Z,4.10
2023-05-19T13:43:07.987Z,4.15
2023-05-19T13:44:10.389Z,3.92
2023-05-19T13:45:12.999Z,3.70
2023-05-19T13:46:16.346Z,3.60
2023-05-19T13:47:18.833Z,3.90
2023-05-19T13:48:21.840Z,3.78
2023-05-19T13:49:25.417Z,4.20
2023-05-19T13:50:27.790Z,3.83
2023-05-19T13:51:30.075Z,3.60
2023-05-19T13:52:32.777Z,3.90
2023-05-19T13:53:35.238Z,4.30
2023-05-19T13:54:37.625Z,3.63
2023-05-19T13:55:39.987Z,3.78
2023-05-19T13:56:43.496Z,3.70
2023-05-19T13:57:45.841Z,3.83
2023-05-19T13:58:48.110Z,3.47
2023-05-19T14:00:01.906Z,3.80
2023-05-19T14:01:14.252Z,3.40
2023-05-19T14:02:16.590Z,3.60
2023-05-19T14:03:20.024Z,3.63
2023-05-19T14:04:24.134Z,3.30
2023-05-19T14:05:28.554Z,3.45
2023-05-19T14:06:30.922Z,3.60
2023-05-19T14:07:35.397Z,3.15
2023-05-19T14:08:38.136Z,3.58
2023-05-19T14:09:41.908Z,3.40
2023-05-19T14:10:46.924Z,3.00
2023-05-19T14:11:49.256Z,3.25
2023-05-19T14:14:01.048Z,2.70
2023-05-19T14:15:03.758Z,2.95
2023-05-19T14:16:09.397Z,2.80
2023-05-19T14:17:12.216Z,2.85
2023-05-19T14:18:15.159Z,2.92
2023-05-19T14:19:18.036Z,3.58
2023-05-19T14:20:20.356Z,2.85
2023-05-19T14:21:23.283Z,3.00
2023-05-19T14:22:25.973Z,3.30
2023-05-19T14:23:30.452Z,3.40
2023-05-19T14:24:32.801Z,3.17
2023-05-19T14:25:35.162Z,3.60
2023-05-19T14:26:37.505Z,3.50